createdAt,value
2023-03-03T00:00:07.100Z,2.00
2023-03-03T00:02:19.888Z,1.60
2023-03-03T00:04:22.812Z,1.50
2023-03-03T00:06:27.195Z,1.50
2023-03-03T00:08:30.024Z,1.60
2023-03-03T00:10:33.437Z,1.70
2023-03-03T00:12:38.670Z,2.00
2023-03-03T00:14:41.826Z,2.00
2023-03-03T00:16:44.627Z,2.10
2023-03-03T00:18:49.060Z,2.20
2023-03-03T00:20:55.230Z,2.30
2023-03-03T00:23:05.410Z,2.30
2023-03-03T00:25:29.117Z,2.10
2023-03-03T00:27:35.992Z,2.20
2023-03-03T00:29:42.398Z,2.20
2023-03-03T00:31:45.273Z,2.30
2023-03-03T00:33:54.881Z,2.20
2023-03-03T00:35:58.177Z,2.20
2023-03-03T00:38:11.275Z,2.20
2023-03-03T00:40:25.426Z,2.10
2023-03-03T00:42:28.845Z,2.30
2023-03-03T00:44:42.406Z,2.60
2023-03-03T00:46:45.315Z,2.80
2023-03-03T00:48:49.209Z,2.80
2023-03-03T00:50:53.329Z,2.80
2023-03-03T00:53:04.355Z,2.90
2023-03-03T00:55:08.586Z,2.80
2023-03-03T00:57:12.601Z,3.00
2023-03-03T00:59:15.435Z,3.10
2023-03-03T01:01:18.917Z,3.00
2023-03-03T01:03:24.677Z,2.90
2023-03-03T01:05:27.503Z,2.90
2023-03-03T01:07:30.384Z,3.00
2023-03-03T01:09:34.624Z,3.00
2023-03-03T01:11:37.604Z,3.10
2023-03-03T01:13:41.853Z,3.10
2023-03-03T01:15:45.313Z,3.10
2023-03-03T01:17:48.154Z,3.00
2023-03-03T01:19:51.084Z,3.00
2023-03-03T01:21:54.102Z,3.20
2023-03-03T01:23:56.876Z,3.40
2023-03-03T01:26:01.189Z,3.50
2023-03-03T01:28:04.431Z,3.60
2023-03-03T01:30:09.933Z,3.70
2023-03-03T01:32:12.811Z,3.80
2023-03-03T01:34:15.805Z,3.90
2023-03-03T01:36:24.327Z,3.90
2023-03-03T01:38:27.406Z,3.90
2023-03-03T01:40:32.209Z,3.90
2023-03-03T01:42:36.394Z,3.80
2023-03-03T01:44:39.216Z,3.90
2023-03-03T01:46:55.218Z,3.80
2023-03-03T01:49:03.354Z,3.80
2023-03-03T01:51:15.406Z,3.80
2023-03-03T01:53:21.380Z,3.50
2023-03-03T01:55:28.500Z,3.30
2023-03-03T01:57:35.004Z,3.30
2023-03-03T01:59:45.073Z,3.50
2023-03-03T02:01:49.732Z,3.30
2023-03-03T02:03:53.675Z,3.40
2023-03-03T02:06:01.724Z,3.20
2023-03-03T02:08:05.079Z,3.50
2023-03-03T02:10:11.622Z,3.70
2023-03-03T02:12:19.331Z,3.90
2023-03-03T02:14:22.148Z,4.10
2023-03-03T02:16:26.590Z,4.10
2023-03-03T02:18:30.138Z,4.20
2023-03-03T02:20:51.776Z,4.20
2023-03-03T02:22:59.495Z,4.10
2023-03-03T02:25:06.643Z,4.30
2023-03-03T02:27:10.833Z,4.30
2023-03-03T02:29:13.830Z,4.30
2023-03-03T02:31:20.048Z,4.30
2023-03-03T02:33:22.965Z,4.30
2023-03-03T02:35:32.890Z,4.30
2023-03-03T02:37:36.149Z,4.40
2023-03-03T02:39:38.923Z,4.30
2023-03-03T02:41:46.709Z,4.20
2023-03-03T02:43:56.426Z,4.00
2023-03-03T02:45:59.249Z,3.90
2023-03-03T02:48:02.068Z,3.80
2023-03-03T02:50:05.355Z,3.70
2023-03-03T02:52:10.660Z,3.80
2023-03-03T02:54:15.409Z,3.80
2023-03-03T02:56:18.248Z,3.90
2023-03-03T02:58:21.240Z,3.90
2023-03-03T03:00:25.422Z,3.90
2023-03-03T03:02:28.279Z,4.00
2023-03-03T03:04:31.228Z,3.60
2023-03-03T03:06:34.147Z,3.60
2023-03-03T03:08:36.982Z,3.50
2023-03-03T03:10:39.768Z,3.40
2023-03-03T03:12:42.752Z,3.40
2023-03-03T03:14:45.763Z,3.20
2023-03-03T03:16:50.346Z,3.00
2023-03-03T03:18:53.187Z,3.10
2023-03-03T03:20:56.252Z,2.90
2023-03-03T03:22:59.100Z,3.00
2023-03-03T03:25:01.957Z,2.80
2023-03-03T03:27:05.105Z,2.90
2023-03-03T03:29:08.381Z,2.80
2023-03-03T03:31:11.524Z,3.00
2023-03-03T03:33:15.682Z,3.30
2023-03-03T03:35:18.776Z,3.50
2023-03-03T03:37:21.594Z,3.60
2023-03-03T03:39:24.420Z,3.70
2023-03-03T03:41:27.199Z,3.80
2023-03-03T03:43:30.038Z,3.80
2023-03-03T03:45:33.391Z,3.70
2023-03-03T03:47:36.287Z,3.80
2023-03-03T03:49:40.757Z,3.80
2023-03-03T03:51:43.542Z,3.90
2023-03-03T03:53:46.642Z,3.90
2023-03-03T03:55:49.495Z,3.90
2023-03-03T03:57:52.273Z,3.80
2023-03-03T03:59:55.298Z,3.80
2023-03-03T04:01:58.123Z,3.80
2023-03-03T04:04:00.970Z,3.90
2023-03-03T04:06:05.308Z,4.00
2023-03-03T04:08:08.510Z,3.80
2023-03-03T04:10:12.534Z,3.90
2023-03-03T04:12:15.333Z,3.80
2023-03-03T04:14:18.125Z,3.60
2023-03-03T04:16:20.975Z,3.30
2023-03-03T04:18:23.825Z,3.20
2023-03-03T04:20:26.841Z,3.20
2023-03-03T04:22:33.932Z,2.80
2023-03-03T04:24:36.747Z,2.80
2023-03-03T04:26:39.724Z,3.00
2023-03-03T04:28:42.646Z,3.20
2023-03-03T04:30:45.892Z,3.30
2023-03-03T04:32:49.698Z,2.90
2023-03-03T04:34:58.610Z,2.80
2023-03-03T04:37:09.741Z,3.10
2023-03-03T04:39:14.047Z,2.80
2023-03-03T04:41:16.980Z,2.50
2023-03-03T04:43:19.841Z,2.60
2023-03-03T04:45:22.668Z,2.70
2023-03-03T04:47:25.893Z,2.90
2023-03-03T04:49:28.872Z,3.00
2023-03-03T04:51:31.677Z,2.70
2023-03-03T04:53:34.488Z,2.60
2023-03-03T04:55:39.734Z,2.80
2023-03-03T04:57:42.549Z,2.70
2023-03-03T04:59:45.441Z,2.70
2023-03-03T05:01:48.961Z,2.10
2023-03-03T05:03:51.730Z,1.90
2023-03-03T05:05:55.107Z,2.10
2023-03-03T05:07:57.882Z,2.20
2023-03-03T05:10:00.749Z,2.10
2023-03-03T05:12:05.383Z,2.20
2023-03-03T05:14:08.709Z,2.20
2023-03-03T05:16:11.729Z,2.30
2023-03-03T05:18:14.526Z,2.50
2023-03-03T05:20:18.566Z,2.40
2023-03-03T05:22:21.366Z,2.40
2023-03-03T05:24:24.152Z,2.50
2023-03-03T05:26:27.065Z,2.60
2023-03-03T05:28:31.375Z,2.70
2023-03-03T05:30:34.224Z,2.80
2023-03-03T05:32:37.267Z,3.00
2023-03-03T05:34:40.264Z,3.30
2023-03-03T05:36:43.081Z,3.40
2023-03-03T05:38:45.868Z,2.90
2023-03-03T05:40:48.888Z,3.10
2023-03-03T05:42:51.851Z,3.20
2023-03-03T05:44:55.960Z,2.80
2023-03-03T05:46:59.246Z,2.90
2023-03-03T05:49:02.144Z,2.80
2023-03-03T05:51:05.540Z,2.70
2023-03-03T05:53:08.438Z,2.60
2023-03-03T05:55:12.373Z,2.60
2023-03-03T05:57:15.511Z,2.10
2023-03-03T05:59:19.117Z,2.10
2023-03-03T06:01:23.463Z,2.00
2023-03-03T06:03:26.361Z,2.20
2023-03-03T06:05:29.268Z,2.20
2023-03-03T06:07:32.052Z,1.70
2023-03-03T06:09:34.932Z,1.60
2023-03-03T06:11:38.384Z,1.60
2023-03-03T06:13:42.713Z,1.80
2023-03-03T06:15:45.685Z,1.70
2023-03-03T06:17:50.082Z,1.70
2023-03-03T06:19:52.976Z,1.80
2023-03-03T06:21:55.970Z,2.00
2023-03-03T06:23:58.842Z,1.60
2023-03-03T06:26:01.697Z,1.60
2023-03-03T06:28:04.786Z,1.40
2023-03-03T06:30:08.809Z,1.80
2023-03-03T06:32:12.070Z,2.10
2023-03-03T06:34:16.345Z,2.30
2023-03-03T06:36:19.368Z,2.30
2023-03-03T06:38:22.387Z,2.50
2023-03-03T06:40:25.322Z,2.80
2023-03-03T06:42:28.181Z,3.00
2023-03-03T06:44:31.030Z,3.10
2023-03-03T06:46:33.834Z,3.20
2023-03-03T06:48:36.737Z,3.30
2023-03-03T06:50:40.895Z,3.40
2023-03-03T06:52:43.732Z,3.60
2023-03-03T06:54:46.575Z,3.50
2023-03-03T06:56:54.525Z,3.50
2023-03-03T06:58:59.213Z,3.10
2023-03-03T07:01:03.134Z,3.20
2023-03-03T07:03:12.629Z,3.30
2023-03-03T07:05:18.599Z,3.30
2023-03-03T07:07:25.568Z,3.40
2023-03-03T07:09:30.829Z,3.40
2023-03-03T07:11:36.433Z,3.60
2023-03-03T07:13:43.919Z,3.70
2023-03-03T07:15:47.392Z,3.80
2023-03-03T07:17:53.625Z,3.40
2023-03-03T07:19:56.402Z,2.90
2023-03-03T07:21:59.608Z,2.50
2023-03-03T07:24:26.973Z,2.50
2023-03-03T07:26:32.913Z,2.70
2023-03-03T07:28:35.903Z,2.90
2023-03-03T07:30:38.932Z,3.20
2023-03-03T07:32:44.207Z,3.40
2023-03-03T07:34:49.189Z,3.60
2023-03-03T07:36:55.325Z,3.70
2023-03-03T07:39:01.056Z,3.60
2023-03-03T07:41:11.267Z,3.40
2023-03-03T07:43:30.695Z,3.30
2023-03-03T07:45:38.697Z,3.30
2023-03-03T07:47:41.473Z,2.90
2023-03-03T07:49:44.405Z,3.10
2023-03-03T07:51:47.265Z,3.10
2023-03-03T07:53:50.439Z,3.30
2023-03-03T07:55:53.521Z,2.40
2023-03-03T07:58:00.225Z,3.00
2023-03-03T08:00:25.442Z,2.80
2023-03-03T08:02:38.060Z,3.00
2023-03-03T08:04:43.564Z,3.10
2023-03-03T08:06:49.986Z,3.40
2023-03-03T08:08:53.698Z,3.50
2023-03-03T08:10:58.375Z,3.30
2023-03-03T08:13:10.683Z,3.60
2023-03-03T08:15:22.581Z,3.70
2023-03-03T08:17:30.589Z,3.80
2023-03-03T08:19:35.057Z,4.10
2023-03-03T08:21:37.972Z,4.10
2023-03-03T08:23:40.979Z,4.20
2023-03-03T08:25:44.388Z,4.30
2023-03-03T08:27:47.411Z,4.10
2023-03-03T08:29:51.657Z,4.30
2023-03-03T08:31:54.801Z,4.50
2023-03-03T08:33:58.782Z,4.70
2023-03-03T08:36:02.068Z,4.90
2023-03-03T08:38:06.170Z,4.70
2023-03-03T08:40:10.464Z,4.70
2023-03-03T08:42:15.858Z,5.00
2023-03-03T08:44:19.647Z,5.20
2023-03-03T08:46:23.958Z,5.40
2023-03-03T08:48:28.039Z,5.60
2023-03-03T08:50:31.274Z,5.60
2023-03-03T08:52:34.365Z,5.70
2023-03-03T08:54:37.493Z,5.70
2023-03-03T08:56:40.447Z,5.70
2023-03-03T08:59:01.168Z,5.60
2023-03-03T09:01:05.558Z,5.70
2023-03-03T09:03:09.847Z,5.30
2023-03-03T09:05:13.559Z,4.90
2023-03-03T09:07:17.851Z,4.80
2023-03-03T09:09:20.705Z,4.70
2023-03-03T09:11:27.627Z,4.50
2023-03-03T09:13:31.609Z,4.70
2023-03-03T09:15:36.111Z,4.80
2023-03-03T09:17:38.989Z,4.80
2023-03-03T09:19:43.689Z,5.00
2023-03-03T09:21:46.549Z,4.90
2023-03-03T09:23:55.043Z,4.70
2023-03-03T09:25:58.599Z,4.90
2023-03-03T09:28:02.172Z,5.30
2023-03-03T09:30:17.510Z,5.10
2023-03-03T09:32:31.159Z,5.20
2023-03-03T09:34:41.376Z,5.10
2023-03-03T09:36:45.550Z,5.20
2023-03-03T09:38:49.649Z,5.10
2023-03-03T09:41:07.486Z,5.30
2023-03-03T09:43:14.450Z,5.50
2023-03-03T09:45:34.774Z,5.80
2023-03-03T09:47:48.049Z,5.90
2023-03-03T09:50:02.788Z,6.00
2023-03-03T09:52:22.422Z,6.30
2023-03-03T09:54:35.478Z,6.40
2023-03-03T09:56:42.768Z,6.40
2023-03-03T09:58:57.790Z,6.50
2023-03-03T10:01:15.853Z,6.40
2023-03-03T10:03:57.352Z,6.30
2023-03-03T10:06:04.437Z,6.10
2023-03-03T10:08:31.210Z,6.20
2023-03-03T10:10:46.912Z,5.90
2023-03-03T10:13:01.110Z,5.70
2023-03-03T10:15:22.952Z,5.20
2023-03-03T10:17:37.740Z,5.10
2023-03-03T10:19:42.620Z,5.30
2023-03-03T10:21:52.131Z,5.50
2023-03-03T10:24:00.594Z,5.60
2023-03-03T10:26:18.126Z,5.30
2023-03-03T10:28:57.192Z,4.70
2023-03-03T10:31:15.557Z,5.00
2023-03-03T10:33:27.922Z,5.30
2023-03-03T10:36:00.924Z,5.30
2023-03-03T10:38:20.295Z,5.50
2023-03-03T10:40:32.918Z,5.40
2023-03-03T10:42:52.236Z,5.40
2023-03-03T10:45:20.666Z,5.40
2023-03-03T10:47:46.346Z,5.70
2023-03-03T10:49:59.313Z,6.00
2023-03-03T10:52:41.076Z,6.10
2023-03-03T10:55:04.852Z,6.10
2023-03-03T10:57:19.983Z,6.30
2023-03-03T10:59:38.853Z,6.50
2023-03-03T11:01:50.509Z,6.30
2023-03-03T11:04:08.974Z,5.90
2023-03-03T11:06:19.552Z,5.90
2023-03-03T11:08:29.407Z,5.80
2023-03-03T11:10:48.157Z,5.90
2023-03-03T11:13:08.945Z,5.70
2023-03-03T11:15:38.870Z,6.00
2023-03-03T11:17:56.170Z,6.40
2023-03-03T11:20:06.834Z,6.50
2023-03-03T11:22:21.105Z,6.40
2023-03-03T11:24:56.670Z,6.40
2023-03-03T11:27:25.048Z,6.60
2023-03-03T11:29:51.083Z,6.60
2023-03-03T11:31:57.972Z,6.70
2023-03-03T11:34:08.948Z,6.50
2023-03-03T11:36:17.482Z,6.50
2023-03-03T11:38:41.267Z,6.50
2023-03-03T11:40:50.153Z,6.60
2023-03-03T11:43:03.037Z,6.40
2023-03-03T11:45:16.878Z,6.20
2023-03-03T11:47:26.652Z,6.10
2023-03-03T11:49:37.427Z,6.20
2023-03-03T11:51:50.023Z,6.40
2023-03-03T11:54:00.563Z,6.30
2023-03-03T11:56:11.532Z,6.30
2023-03-03T11:58:20.408Z,5.90
2023-03-03T12:00:32.351Z,6.30
2023-03-03T12:02:52.417Z,6.20
2023-03-03T12:04:58.349Z,6.00
2023-03-03T12:07:19.439Z,6.10
2023-03-03T12:09:34.711Z,6.00
2023-03-03T12:11:46.349Z,6.10
2023-03-03T12:13:57.779Z,5.90
2023-03-03T12:16:13.741Z,5.50
2023-03-03T12:18:36.601Z,5.50
2023-03-03T12:20:46.465Z,5.80
2023-03-03T12:23:06.441Z,5.90
2023-03-03T12:25:36.463Z,5.70
2023-03-03T12:27:46.846Z,5.90
2023-03-03T12:29:57.322Z,5.80
2023-03-03T12:32:15.367Z,5.50
2023-03-03T12:34:25.676Z,5.30
2023-03-03T12:37:02.996Z,5.30
2023-03-03T12:39:11.939Z,5.50
2023-03-03T12:41:24.006Z,5.10
2023-03-03T12:43:45.048Z,5.40
2023-03-03T12:45:57.398Z,5.10
2023-03-03T12:48:09.931Z,5.00
2023-03-03T12:50:26.446Z,4.80
2023-03-03T12:52:38.645Z,4.90
2023-03-03T12:54:58.892Z,5.10
2023-03-03T12:57:07.673Z,4.80
2023-03-03T12:59:18.238Z,4.90
2023-03-03T13:01:35.966Z,4.80
2023-03-03T13:03:55.379Z,4.60
2023-03-03T13:06:08.196Z,4.90
2023-03-03T13:08:34.726Z,4.70
2023-03-03T13:10:45.785Z,4.50
2023-03-03T13:12:53.208Z,4.40
2023-03-03T13:15:01.379Z,4.40
2023-03-03T13:17:16.197Z,4.40
2023-03-03T13:19:25.361Z,4.30
2023-03-03T13:21:33.590Z,4.70
2023-03-03T13:23:44.569Z,5.00
2023-03-03T13:25:52.450Z,5.30
2023-03-03T13:28:02.074Z,5.20
2023-03-03T13:30:16.961Z,5.00
2023-03-03T13:32:23.285Z,4.70
2023-03-03T13:34:38.363Z,4.90
2023-03-03T13:36:50.927Z,5.30
2023-03-03T13:38:58.658Z,5.40
2023-03-03T13:41:10.860Z,5.70
2023-03-03T13:43:18.943Z,5.60
2023-03-03T13:45:28.266Z,5.70
2023-03-03T13:47:40.849Z,5.80
2023-03-03T13:50:12.986Z,5.70
2023-03-03T13:52:22.487Z,5.30
2023-03-03T13:54:41.888Z,5.10
2023-03-03T13:56:59.525Z,5.00
2023-03-03T13:59:08.830Z,5.10
2023-03-03T14:01:19.252Z,5.40
2023-03-03T14:03:49.770Z,5.10
2023-03-03T14:05:58.983Z,5.60
2023-03-03T14:08:09.357Z,4.80
2023-03-03T14:10:19.333Z,5.00
2023-03-03T14:12:30.745Z,4.80
2023-03-03T14:14:47.121Z,5.00
2023-03-03T14:16:53.752Z,5.20
2023-03-03T14:18:59.119Z,5.10
2023-03-03T14:21:10.466Z,5.30
2023-03-03T14:23:19.933Z,5.30
2023-03-03T14:25:23.380Z,5.50
2023-03-03T14:27:28.285Z,5.60
2023-03-03T14:29:34.071Z,5.40
2023-03-03T14:31:43.441Z,5.10
2023-03-03T14:33:58.183Z,5.30
2023-03-03T14:36:11.227Z,5.30
2023-03-03T14:38:15.869Z,5.40
2023-03-03T14:40:23.105Z,5.20
2023-03-03T14:42:36.561Z,5.30
2023-03-03T14:44:54.919Z,5.40
2023-03-03T14:47:20.020Z,5.50
2023-03-03T14:49:32.731Z,5.70
2023-03-03T14:51:43.493Z,5.70
2023-03-03T14:53:50.167Z,5.60
2023-03-03T14:55:54.924Z,5.70
2023-03-03T14:57:59.881Z,5.70
2023-03-03T15:00:10.898Z,5.70
2023-03-03T15:02:31.322Z,5.80
2023-03-03T15:04:35.220Z,5.90
2023-03-03T15:06:45.050Z,5.70
2023-03-03T15:08:48.032Z,5.70
2023-03-03T15:10:51.096Z,5.70
2023-03-03T15:12:53.998Z,5.90
2023-03-03T15:15:11.425Z,6.10
2023-03-03T15:17:29.382Z,5.80
2023-03-03T15:19:44.765Z,5.90
2023-03-03T15:22:00.409Z,5.70
2023-03-03T15:24:08.358Z,5.60
2023-03-03T15:26:15.952Z,5.30
2023-03-03T15:28:28.673Z,5.00
2023-03-03T15:30:38.014Z,4.60
2023-03-03T15:32:48.029Z,4.80
2023-03-03T15:35:00.232Z,5.10
2023-03-03T15:37:19.092Z,5.30
2023-03-03T15:39:29.018Z,5.60
2023-03-03T15:41:41.923Z,5.40
2023-03-03T15:43:55.330Z,5.50
2023-03-03T15:46:08.007Z,5.20
2023-03-03T15:48:25.674Z,5.00
2023-03-03T15:50:39.684Z,4.70
2023-03-03T15:52:57.186Z,4.80
2023-03-03T15:55:14.475Z,4.80
2023-03-03T15:57:27.293Z,4.90
2023-03-03T15:59:57.402Z,4.60
2023-03-03T16:02:14.900Z,4.80
2023-03-03T16:04:20.826Z,4.80
2023-03-03T16:06:29.418Z,4.90
2023-03-03T16:08:45.175Z,4.90
2023-03-03T16:10:56.662Z,4.50
2023-03-03T16:13:12.122Z,4.50
2023-03-03T16:15:28.916Z,4.20
2023-03-03T16:17:40.678Z,4.10
2023-03-03T16:19:50.311Z,3.90
2023-03-03T16:22:16.193Z,4.40
2023-03-03T16:24:38.276Z,4.50
2023-03-03T16:26:49.638Z,4.20
2023-03-03T16:29:12.449Z,4.20
2023-03-03T16:31:21.634Z,4.10
2023-03-03T16:33:33.201Z,4.10
2023-03-03T16:35:41.186Z,3.90
2023-03-03T16:37:54.886Z,4.00
2023-03-03T16:40:10.455Z,4.00
2023-03-03T16:42:23.642Z,4.20
2023-03-03T16:44:39.328Z,4.40
2023-03-03T16:46:45.714Z,4.10
2023-03-03T16:48:54.570Z,4.10
2023-03-03T16:51:13.414Z,4.00
2023-03-03T16:53:27.443Z,4.20
2023-03-03T16:55:36.094Z,4.20
2023-03-03T16:57:51.459Z,4.30
2023-03-03T17:00:04.408Z,4.20
2023-03-03T17:02:30.997Z,4.20
2023-03-03T17:04:43.949Z,4.30
2023-03-03T17:06:50.296Z,4.10
2023-03-03T17:09:20.444Z,4.10
2023-03-03T17:11:47.202Z,4.00
2023-03-03T17:14:14.130Z,4.20
2023-03-03T17:16:23.604Z,4.40
2023-03-03T17:18:38.901Z,4.30
2023-03-03T17:20:51.411Z,4.30
2023-03-03T17:23:07.367Z,4.40
2023-03-03T17:25:19.630Z,4.30
2023-03-03T17:27:32.927Z,4.20
2023-03-03T17:29:46.781Z,4.50
2023-03-03T17:31:57.186Z,4.50
2023-03-03T17:34:16.108Z,4.00
2023-03-03T17:36:43.298Z,4.20
2023-03-03T17:39:01.321Z,4.10
2023-03-03T17:41:08.568Z,4.40
2023-03-03T17:43:18.736Z,4.40
2023-03-03T17:45:24.896Z,4.60
2023-03-03T17:47:42.204Z,4.60
2023-03-03T17:50:03.157Z,4.40
2023-03-03T17:52:44.092Z,4.50
2023-03-03T17:55:06.506Z,4.60
2023-03-03T17:57:26.233Z,4.40
2023-03-03T17:59:47.360Z,4.30
2023-03-03T18:02:13.898Z,4.10
2023-03-03T18:04:45.444Z,4.20
2023-03-03T18:07:11.576Z,4.40
2023-03-03T18:09:36.955Z,4.40
2023-03-03T18:12:00.235Z,4.30
2023-03-03T18:14:20.121Z,4.50
2023-03-03T18:16:40.214Z,4.50
2023-03-03T18:18:57.272Z,4.20
2023-03-03T18:21:05.703Z,4.30
2023-03-03T18:23:34.046Z,4.30
2023-03-03T18:25:57.151Z,4.30
2023-03-03T18:28:20.627Z,4.40
2023-03-03T18:30:27.067Z,4.30
2023-03-03T18:32:41.988Z,4.20
2023-03-03T18:34:44.906Z,4.00
2023-03-03T18:36:56.769Z,4.10
2023-03-03T18:39:01.523Z,4.20
2023-03-03T18:41:05.914Z,4.40
2023-03-03T18:43:50.095Z,4.50
2023-03-03T18:45:53.173Z,4.60
2023-03-03T18:48:06.149Z,4.80
2023-03-03T18:50:17.227Z,4.70
2023-03-03T18:52:24.077Z,4.60
2023-03-03T18:54:31.345Z,4.50
2023-03-03T18:56:44.611Z,4.20
2023-03-03T18:58:52.136Z,4.40
2023-03-03T19:00:59.743Z,4.20
2023-03-03T19:03:19.692Z,4.30
2023-03-03T19:05:25.732Z,4.10
2023-03-03T19:07:32.388Z,4.30
2023-03-03T19:09:52.533Z,4.20
2023-03-03T19:11:57.128Z,3.90
2023-03-03T19:14:19.112Z,3.80
2023-03-03T19:16:38.369Z,3.90
2023-03-03T19:19:02.713Z,3.80
2023-03-03T19:21:08.939Z,3.90
2023-03-03T19:23:15.732Z,4.10
2023-03-03T19:25:25.992Z,4.00
2023-03-03T19:27:33.744Z,4.10
2023-03-03T19:30:22.635Z,4.20
2023-03-03T19:32:49.410Z,4.50
2023-03-03T19:35:02.655Z,4.60
2023-03-03T19:37:20.408Z,4.60
2023-03-03T19:39:46.344Z,4.40
2023-03-03T19:42:02.570Z,4.60
2023-03-03T19:44:16.802Z,4.70
2023-03-03T19:46:34.677Z,4.60
2023-03-03T19:48:43.778Z,4.60
2023-03-03T19:50:56.382Z,4.60
2023-03-03T19:53:08.752Z,4.70
2023-03-03T19:55:35.019Z,4.80
2023-03-03T19:57:48.895Z,4.80
2023-03-03T20:00:01.256Z,5.00
2023-03-03T20:02:26.508Z,5.10
2023-03-03T20:04:55.938Z,5.10
2023-03-03T20:07:09.087Z,5.10
2023-03-03T20:09:25.437Z,5.20
2023-03-03T20:11:48.036Z,5.10
2023-03-03T20:13:59.336Z,5.10
2023-03-03T20:16:14.917Z,4.80
2023-03-03T20:18:41.816Z,4.90
2023-03-03T20:20:57.982Z,4.80
2023-03-03T20:23:11.830Z,4.90
2023-03-03T20:25:26.207Z,5.10
2023-03-03T20:27:35.961Z,5.10
2023-03-03T20:30:03.904Z,5.00
2023-03-03T20:32:15.321Z,5.00
2023-03-03T20:34:27.342Z,5.00
2023-03-03T20:36:39.421Z,5.00
2023-03-03T20:38:53.996Z,5.00
2023-03-03T20:41:09.384Z,4.90
2023-03-03T20:43:27.376Z,4.90
2023-03-03T20:45:43.776Z,4.80
2023-03-03T20:47:58.569Z,4.70
2023-03-03T20:50:15.493Z,5.00
2023-03-03T20:52:28.172Z,4.80
2023-03-03T20:54:43.438Z,4.80
2023-03-03T20:56:51.900Z,4.80
2023-03-03T20:59:06.157Z,4.90
2023-03-03T21:01:12.297Z,4.80
2023-03-03T21:03:20.972Z,4.80
2023-03-03T21:05:24.706Z,4.90
2023-03-03T21:07:27.607Z,5.10
2023-03-03T21:09:33.671Z,5.10
2023-03-03T21:11:43.004Z,5.20
2023-03-03T21:13:47.803Z,5.30
2023-03-03T21:15:56.121Z,5.40
2023-03-03T21:18:00.152Z,5.40
2023-03-03T21:20:24.618Z,5.40
2023-03-03T21:22:27.494Z,5.40
2023-03-03T21:24:54.636Z,5.10
2023-03-03T21:26:58.726Z,5.20
2023-03-03T21:29:03.683Z,5.20
2023-03-03T21:31:14.443Z,5.50
2023-03-03T21:33:42.308Z,5.30
2023-03-03T21:35:58.621Z,5.00
2023-03-03T21:38:01.480Z,4.90
2023-03-03T21:40:25.336Z,5.00
2023-03-03T21:42:41.851Z,5.00
2023-03-03T21:44:46.707Z,5.20
2023-03-03T21:46:49.804Z,5.30
2023-03-03T21:48:53.625Z,5.00
2023-03-03T21:50:56.524Z,5.10
2023-03-03T21:52:59.414Z,5.00
2023-03-03T21:55:02.321Z,5.00
2023-03-03T21:57:06.882Z,5.10
2023-03-03T21:59:10.240Z,5.10
2023-03-03T22:01:13.894Z,5.20
2023-03-03T22:03:18.715Z,5.30
2023-03-03T22:05:21.606Z,5.40
2023-03-03T22:07:24.508Z,4.90
2023-03-03T22:09:27.510Z,5.10
2023-03-03T22:11:30.303Z,5.30
2023-03-03T22:13:34.442Z,5.10
2023-03-03T22:15:37.331Z,5.30
2023-03-03T22:17:40.768Z,5.30
2023-03-03T22:19:43.771Z,5.40
2023-03-03T22:21:47.816Z,5.40
2023-03-03T22:23:50.662Z,5.50
2023-03-03T22:25:53.442Z,5.60
2023-03-03T22:27:56.515Z,5.30
2023-03-03T22:30:00.636Z,5.30
2023-03-03T22:32:03.440Z,5.30
2023-03-03T22:34:06.467Z,5.50
2023-03-03T22:36:10.068Z,5.60
2023-03-03T22:38:12.983Z,5.60
2023-03-03T22:40:15.977Z,5.70
2023-03-03T22:42:18.868Z,5.80
2023-03-03T22:44:21.674Z,5.60
2023-03-03T22:46:26.760Z,5.40
2023-03-03T22:48:30.803Z,5.30
2023-03-03T22:50:39.488Z,5.00
2023-03-03T22:52:42.414Z,5.00
2023-03-03T22:54:45.199Z,5.10
2023-03-03T22:56:48.006Z,4.70
2023-03-03T22:58:50.942Z,4.80
2023-03-03T23:00:54.711Z,4.50
2023-03-03T23:02:59.055Z,4.80
2023-03-03T23:05:07.737Z,4.90
2023-03-03T23:07:10.687Z,4.80
2023-03-03T23:09:13.549Z,4.50
2023-03-03T23:11:16.392Z,4.40
2023-03-03T23:13:19.389Z,4.60
2023-03-03T23:15:22.495Z,4.40
2023-03-03T23:17:26.020Z,4.50
2023-03-03T23:19:30.169Z,4.30
2023-03-03T23:21:33.048Z,4.40
2023-03-03T23:23:35.892Z,4.50
2023-03-03T23:25:38.667Z,4.50
2023-03-03T23:27:41.939Z,4.80
2023-03-03T23:29:44.712Z,4.70
2023-03-03T23:31:47.530Z,4.80
2023-03-03T23:33:50.273Z,4.90
2023-03-03T23:35:54.403Z,5.10
2023-03-03T23:37:57.334Z,5.00
2023-03-03T23:40:00.122Z,4.80
2023-03-03T23:42:02.979Z,4.70
2023-03-03T23:44:05.794Z,4.80
2023-03-03T23:46:09.000Z,4.40
2023-03-03T23:48:11.934Z,4.70
2023-03-03T23:50:15.235Z,4.90
2023-03-03T23:52:19.473Z,4.80
2023-03-03T23:54:22.359Z,4.80
2023-03-03T23:56:25.282Z,4.90
2023-03-03T23:58:28.109Z,4.90
